createdAt,value
2023-04-12T00:01:42.010Z,96.90
2023-04-12T00:04:10.034Z,96.20
2023-04-12T00:06:37.819Z,96.00
2023-04-12T00:09:05.576Z,96.00
2023-04-12T00:11:33.452Z,95.90
2023-04-12T00:14:01.024Z,95.60
2023-04-12T00:16:29.649Z,95.60
2023-04-12T00:19:01.365Z,95.60
2023-04-12T00:21:30.989Z,95.60
2023-04-12T00:23:58.838Z,95.60
2023-04-12T00:26:26.636Z,95.60
2023-04-12T00:28:54.567Z,95.60
2023-04-12T00:31:22.113Z,95.70
2023-04-12T00:33:49.705Z,95.40
2023-04-12T00:36:17.473Z,94.60
2023-04-12T00:38:45.083Z,93.80
2023-04-12T00:41:12.626Z,93.50
2023-04-12T00:43:43.191Z,93.30
2023-04-12T00:46:11.478Z,93.40
2023-04-12T00:48:39.466Z,93.00
2023-04-12T00:51:08.748Z,93.00
2023-04-12T00:53:37.683Z,92.80
2023-04-12T00:56:05.230Z,92.50
2023-04-12T00:58:37.053Z,92.20
2023-04-12T01:01:04.758Z,92.00
2023-04-12T01:03:33.739Z,91.80
2023-04-12T01:06:01.548Z,91.70
2023-04-12T01:08:30.414Z,91.80
2023-04-12T01:10:58.065Z,92.00
2023-04-12T01:13:27.260Z,91.80
2023-04-12T01:15:54.805Z,91.20
2023-04-12T01:18:22.906Z,90.70
2023-04-12T01:20:52.094Z,90.30
2023-04-12T01:23:20.028Z,90.30
2023-04-12T01:25:47.711Z,90.50
2023-04-12T01:28:17.460Z,90.70
2023-04-12T01:30:44.981Z,90.30
2023-04-12T01:33:17.720Z,90.00
2023-04-12T01:35:47.169Z,89.60
2023-04-12T01:38:20.881Z,89.10
2023-04-12T01:40:50.224Z,87.20
2023-04-12T01:43:17.908Z,87.00
2023-04-12T01:45:46.885Z,88.00
2023-04-12T01:48:14.590Z,87.70
2023-04-12T01:50:47.190Z,87.00
2023-04-12T01:53:16.332Z,87.20
2023-04-12T01:55:45.595Z,86.40
2023-04-12T01:58:13.925Z,86.10
2023-04-12T02:00:44.970Z,85.50
2023-04-12T02:03:13.441Z,85.50
2023-04-12T02:05:41.314Z,84.40
2023-04-12T02:08:09.240Z,84.80
2023-04-12T02:10:36.890Z,84.50
2023-04-12T02:13:04.856Z,83.90
2023-04-12T02:15:33.845Z,82.10
2023-04-12T02:18:02.986Z,83.00
2023-04-12T02:20:31.708Z,83.00
2023-04-12T02:22:59.642Z,82.30
2023-04-12T02:25:33.536Z,82.10
2023-04-12T02:28:01.576Z,81.10
2023-04-12T02:30:29.172Z,81.70
2023-04-12T02:32:58.218Z,81.50
2023-04-12T02:35:26.950Z,80.90
2023-04-12T02:37:54.634Z,79.10
2023-04-12T02:40:22.569Z,78.80
2023-04-12T02:42:52.365Z,78.90
2023-04-12T02:45:20.088Z,79.60
2023-04-12T02:47:47.757Z,79.70
2023-04-12T02:50:16.221Z,79.40
2023-04-12T02:52:43.802Z,79.10
2023-04-12T02:55:11.793Z,79.20
2023-04-12T02:57:39.877Z,78.10
2023-04-12T03:00:07.438Z,77.60
2023-04-12T03:02:36.638Z,76.60
2023-04-12T03:05:05.175Z,76.20
2023-04-12T03:07:33.609Z,76.20
2023-04-12T03:10:01.200Z,75.10
2023-04-12T03:12:29.855Z,74.90
2023-04-12T03:14:57.713Z,74.90
2023-04-12T03:17:25.453Z,75.30
2023-04-12T03:19:53.369Z,75.40
2023-04-12T03:22:20.891Z,74.80
2023-04-12T03:24:48.572Z,74.30
2023-04-12T03:27:16.458Z,73.80
2023-04-12T03:29:43.977Z,74.50
2023-04-12T03:32:11.742Z,73.40
2023-04-12T03:34:39.567Z,73.70
2023-04-12T03:37:07.098Z,71.90
2023-04-12T03:39:34.882Z,72.10
2023-04-12T03:42:02.620Z,72.30
2023-04-12T03:44:30.188Z,72.70
2023-04-12T03:46:57.902Z,71.20
2023-04-12T03:49:25.544Z,71.10
2023-04-12T03:51:53.154Z,70.40
2023-04-12T03:54:20.879Z,69.40
2023-04-12T03:56:48.489Z,69.00
2023-04-12T03:59:16.026Z,67.20
2023-04-12T04:01:43.841Z,68.60
2023-04-12T04:04:11.825Z,69.20
2023-04-12T04:06:39.554Z,68.50
2023-04-12T04:09:07.176Z,67.90
2023-04-12T04:11:34.992Z,68.50
2023-04-12T04:14:02.523Z,69.40
2023-04-12T04:16:30.249Z,69.60
2023-04-12T04:18:57.816Z,68.10
2023-04-12T04:21:25.426Z,66.80
2023-04-12T04:23:53.041Z,66.60
2023-04-12T04:26:20.754Z,66.00
2023-04-12T04:28:48.276Z,66.90
2023-04-12T04:31:16.011Z,66.50
2023-04-12T04:33:44.488Z,66.70
2023-04-12T04:36:12.114Z,67.10
2023-04-12T04:38:39.843Z,66.30
2023-04-12T04:41:07.488Z,65.10
2023-04-12T04:43:35.067Z,65.80
2023-04-12T04:46:02.761Z,64.90
2023-04-12T04:48:32.056Z,64.70
2023-04-12T04:51:00.159Z,64.00
2023-04-12T04:53:28.025Z,62.90
2023-04-12T04:55:56.871Z,62.20
2023-04-12T04:58:24.433Z,62.50
2023-04-12T05:00:52.122Z,63.30
2023-04-12T05:03:20.801Z,63.00
2023-04-12T05:05:48.574Z,63.40
2023-04-12T05:08:16.304Z,61.50
2023-04-12T05:10:44.836Z,60.60
2023-04-12T05:13:12.686Z,60.30
2023-04-12T05:15:40.484Z,61.30
2023-04-12T05:18:08.361Z,61.20
2023-04-12T05:20:35.882Z,61.20
2023-04-12T05:23:04.477Z,62.40
2023-04-12T05:25:32.381Z,62.00
2023-04-12T05:28:00.081Z,62.60
2023-04-12T05:30:27.930Z,60.50
2023-04-12T05:32:55.976Z,60.00
2023-04-12T05:35:23.721Z,60.60
2023-04-12T05:37:51.461Z,60.30
2023-04-12T05:40:19.935Z,60.20
2023-04-12T05:42:47.558Z,61.20
2023-04-12T05:45:15.267Z,59.60
2023-04-12T05:47:43.218Z,56.80
2023-04-12T05:50:10.801Z,56.90
2023-04-12T05:52:38.686Z,58.10
2023-04-12T05:55:07.166Z,59.20
2023-04-12T05:57:34.877Z,59.20
2023-04-12T06:00:02.651Z,59.20
2023-04-12T06:02:31.455Z,59.30
2023-04-12T06:04:59.338Z,57.50
2023-04-12T06:07:27.155Z,55.50
2023-04-12T06:09:55.609Z,53.30
2023-04-12T06:12:23.377Z,53.10
2023-04-12T06:14:51.032Z,53.30
2023-04-12T06:17:18.932Z,52.90
2023-04-12T06:19:46.561Z,52.40
2023-04-12T06:22:14.346Z,52.90
2023-04-12T06:24:42.954Z,52.70
2023-04-12T06:27:10.509Z,52.80
2023-04-12T06:29:38.199Z,53.00
2023-04-12T06:32:06.143Z,52.80
2023-04-12T06:34:34.801Z,53.00
2023-04-12T06:37:02.764Z,53.10
2023-04-12T06:39:31.370Z,52.10
2023-04-12T06:41:59.597Z,54.50
2023-04-12T06:44:28.036Z,55.40
2023-04-12T06:46:56.803Z,55.90
2023-04-12T06:49:24.438Z,55.00
2023-04-12T06:51:52.185Z,54.90
2023-04-12T06:54:20.979Z,54.40
2023-04-12T06:56:48.561Z,55.10
2023-04-12T06:59:16.378Z,54.00
2023-04-12T07:01:44.305Z,53.20
2023-04-12T07:04:14.120Z,52.60
2023-04-12T07:06:42.011Z,54.10
2023-04-12T07:09:09.938Z,54.90
2023-04-12T07:11:37.601Z,54.90
2023-04-12T07:14:05.284Z,53.70
2023-04-12T07:16:33.245Z,53.40
2023-04-12T07:19:00.995Z,53.00
2023-04-12T07:21:30.705Z,53.10
2023-04-12T07:23:59.298Z,53.50
2023-04-12T07:26:26.843Z,55.60
2023-04-12T07:28:54.481Z,54.80
2023-04-12T07:31:22.472Z,54.70
2023-04-12T07:33:50.203Z,55.10
2023-04-12T07:36:17.966Z,54.80
2023-04-12T07:38:46.740Z,53.80
2023-04-12T07:41:14.358Z,53.20
2023-04-12T07:43:42.147Z,54.60
2023-04-12T07:46:10.203Z,53.90
2023-04-12T07:48:37.797Z,53.00
2023-04-12T07:51:05.433Z,52.90
2023-04-12T07:53:33.320Z,52.30
2023-04-12T07:56:00.880Z,51.40
2023-04-12T07:58:28.580Z,51.60
2023-04-12T08:00:58.570Z,54.30
2023-04-12T08:03:27.602Z,54.00
2023-04-12T08:05:55.267Z,54.30
2023-04-12T08:08:24.064Z,54.10
2023-04-12T08:10:51.610Z,53.10
2023-04-12T08:13:19.280Z,53.40
2023-04-12T08:15:47.957Z,53.80
2023-04-12T08:18:15.702Z,53.90
2023-04-12T08:20:43.271Z,53.80
2023-04-12T08:23:11.262Z,53.30
2023-04-12T08:25:38.805Z,53.60
2023-04-12T08:28:08.280Z,54.20
2023-04-12T08:30:36.269Z,54.10
2023-04-12T08:33:04.049Z,54.00
2023-04-12T08:35:32.114Z,54.10
2023-04-12T08:38:00.013Z,54.50
2023-04-12T08:40:27.589Z,54.50
2023-04-12T08:42:55.348Z,54.30
2023-04-12T08:45:23.244Z,54.10
2023-04-12T08:47:50.977Z,53.50
2023-04-12T08:50:18.686Z,53.50
2023-04-12T08:52:46.428Z,53.90
2023-04-12T08:55:14.086Z,53.50
2023-04-12T08:57:41.668Z,54.00
2023-04-12T09:00:10.347Z,53.90
2023-04-12T09:02:38.176Z,54.50
2023-04-12T09:05:06.396Z,53.50
2023-04-12T09:07:34.921Z,53.20
2023-04-12T09:10:02.512Z,53.60
2023-04-12T09:12:32.313Z,53.80
2023-04-12T09:15:00.165Z,54.20
2023-04-12T09:17:27.788Z,53.80
2023-04-12T09:19:55.526Z,54.00
2023-04-12T09:22:23.482Z,53.70
2023-04-12T09:24:51.258Z,53.80
2023-04-12T09:27:18.970Z,54.30
2023-04-12T09:29:47.488Z,54.20
2023-04-12T09:32:15.055Z,53.90
2023-04-12T09:34:43.667Z,53.50
2023-04-12T09:37:11.561Z,54.10
2023-04-12T09:39:40.611Z,54.20
2023-04-12T09:42:18.077Z,53.60
2023-04-12T09:44:57.072Z,52.80
2023-04-12T09:47:24.751Z,53.60
2023-04-12T09:49:52.395Z,54.20
2023-04-12T09:52:20.320Z,54.80
2023-04-12T09:54:48.484Z,55.10
2023-04-12T09:57:15.947Z,55.30
2023-04-12T09:59:44.408Z,55.60
2023-04-12T10:02:12.219Z,55.40
2023-04-12T10:04:40.150Z,56.90
2023-04-12T10:07:08.652Z,57.60
2023-04-12T10:09:36.484Z,56.30
2023-04-12T10:12:04.081Z,56.20
2023-04-12T10:14:33.460Z,57.10
2023-04-12T10:17:01.032Z,56.90
2023-04-12T10:19:28.701Z,58.10
2023-04-12T10:21:57.144Z,58.90
2023-04-12T10:24:25.327Z,58.50
2023-04-12T10:26:52.917Z,58.00
2023-04-12T10:29:21.482Z,58.90
2023-04-12T10:31:49.236Z,59.60
2023-04-12T10:34:16.875Z,59.70
2023-04-12T10:36:44.738Z,61.10
2023-04-12T10:39:12.500Z,62.10
2023-04-12T10:41:40.069Z,62.70
2023-04-12T10:44:07.950Z,63.40
2023-04-12T10:46:35.671Z,64.70
2023-04-12T10:49:03.490Z,64.40
2023-04-12T10:51:31.626Z,67.60
2023-04-12T10:53:59.646Z,67.00
2023-04-12T10:56:28.624Z,67.20
2023-04-12T10:58:59.764Z,68.00
2023-04-12T11:01:27.963Z,68.10
2023-04-12T11:03:55.809Z,68.00
2023-04-12T11:06:27.096Z,70.10
2023-04-12T11:08:55.484Z,69.40
2023-04-12T11:11:23.241Z,70.30
2023-04-12T11:13:51.184Z,71.70
2023-04-12T11:16:18.989Z,72.20
2023-04-12T11:18:46.694Z,72.80
2023-04-12T11:21:14.733Z,72.70
2023-04-12T11:23:42.418Z,73.70
2023-04-12T11:26:09.995Z,73.90
2023-04-12T11:28:38.657Z,74.10
2023-04-12T11:31:06.480Z,74.00
2023-04-12T11:33:34.462Z,74.40
2023-04-12T11:36:02.350Z,74.70
2023-04-12T11:38:30.120Z,74.60
2023-04-12T11:40:57.686Z,75.00
2023-04-12T11:43:25.568Z,75.50
2023-04-12T11:45:53.304Z,75.80
2023-04-12T11:48:20.887Z,76.40
2023-04-12T11:50:59.858Z,77.00
2023-04-12T11:53:36.177Z,77.40
2023-04-12T11:56:04.521Z,76.30
2023-04-12T11:58:32.121Z,76.80
2023-04-12T12:01:00.115Z,76.80
2023-04-12T12:03:28.689Z,77.20
2023-04-12T12:05:56.743Z,77.70
2023-04-12T12:08:24.616Z,78.00
2023-04-12T12:11:07.398Z,77.40
2023-04-12T12:13:35.831Z,77.40
2023-04-12T12:16:04.365Z,77.50
2023-04-12T12:18:31.915Z,77.70
2023-04-12T12:20:59.507Z,77.90
2023-04-12T12:23:28.262Z,77.50
2023-04-12T12:26:06.114Z,77.90
2023-04-12T12:28:43.531Z,77.70
2023-04-12T12:31:11.190Z,77.40
2023-04-12T12:33:45.921Z,77.80
2023-04-12T12:36:26.926Z,78.10
2023-04-12T12:38:55.330Z,78.60
2023-04-12T12:41:23.004Z,78.60
2023-04-12T12:43:50.954Z,78.80
2023-04-12T12:46:18.600Z,78.90
2023-04-12T12:48:46.219Z,79.80
2023-04-12T12:51:14.316Z,80.00
2023-04-12T12:53:41.944Z,79.90
2023-04-12T12:56:09.530Z,79.40
2023-04-12T12:58:40.760Z,78.40
2023-04-12T13:01:08.666Z,78.50
2023-04-12T13:03:36.563Z,80.50
2023-04-12T13:06:05.656Z,80.50
2023-04-12T13:08:33.208Z,80.10
2023-04-12T13:11:00.950Z,81.10
2023-04-12T13:13:28.967Z,81.40
2023-04-12T13:15:56.530Z,82.20
2023-04-12T13:18:24.183Z,83.10
2023-04-12T13:20:52.748Z,82.60
2023-04-12T13:23:20.697Z,82.90
2023-04-12T13:25:48.255Z,83.20
2023-04-12T13:28:16.454Z,82.70
2023-04-12T13:30:44.297Z,83.20
2023-04-12T13:33:13.915Z,82.70
2023-04-12T13:35:46.212Z,83.20
2023-04-12T13:38:14.826Z,81.80
2023-04-12T13:40:42.521Z,82.20
2023-04-12T13:43:10.665Z,82.50
2023-04-12T13:45:38.259Z,82.70
2023-04-12T13:48:05.903Z,82.20
2023-04-12T13:50:34.127Z,82.60
2023-04-12T13:53:01.893Z,82.90
2023-04-12T13:55:29.459Z,82.50
2023-04-12T13:57:58.495Z,82.80
2023-04-12T14:00:26.048Z,83.40
2023-04-12T14:02:53.725Z,83.20
2023-04-12T14:05:23.040Z,82.70
2023-04-12T14:07:52.249Z,82.20
2023-04-12T14:10:19.804Z,81.10
2023-04-12T14:12:47.830Z,81.50
2023-04-12T14:15:15.452Z,81.30
2023-04-12T14:17:43.380Z,81.00
2023-04-12T14:20:11.770Z,80.60
2023-04-12T14:22:40.430Z,80.50
2023-04-12T14:25:07.969Z,80.30
2023-04-12T14:27:36.948Z,80.30
2023-04-12T14:30:04.620Z,79.70
2023-04-12T14:32:32.423Z,79.20
2023-04-12T14:35:00.424Z,80.30
2023-04-12T14:37:28.471Z,80.00
2023-04-12T14:39:56.050Z,80.20
2023-04-12T14:42:23.993Z,80.30
2023-04-12T14:44:51.645Z,80.30
2023-04-12T14:47:19.238Z,80.30
2023-04-12T14:49:48.252Z,80.20
2023-04-12T14:52:15.841Z,79.30
2023-04-12T14:54:43.383Z,79.20
2023-04-12T14:57:13.761Z,79.30
2023-04-12T14:59:41.365Z,78.10
2023-04-12T15:02:09.150Z,78.00
2023-04-12T15:04:38.244Z,77.30
2023-04-12T15:07:06.223Z,76.70
2023-04-12T15:09:33.862Z,76.70
2023-04-12T15:12:03.062Z,76.60
2023-04-12T15:14:30.787Z,77.30
2023-04-12T15:16:58.340Z,77.30
2023-04-12T15:19:26.923Z,76.70
2023-04-12T15:21:54.595Z,77.40
2023-04-12T15:24:22.167Z,76.80
2023-04-12T15:26:50.285Z,77.60
2023-04-12T15:29:17.899Z,77.70
2023-04-12T15:31:45.469Z,77.60
2023-04-12T15:34:13.614Z,77.50
2023-04-12T15:36:41.281Z,77.30
2023-04-12T15:39:08.877Z,77.20
2023-04-12T15:41:37.217Z,76.60
2023-04-12T15:44:04.783Z,76.20
2023-04-12T15:46:32.297Z,75.30
2023-04-12T15:49:00.924Z,75.20
2023-04-12T15:51:28.484Z,75.70
2023-04-12T15:53:56.289Z,75.50
2023-04-12T15:56:30.586Z,75.80
2023-04-12T15:58:58.287Z,76.80
2023-04-12T16:01:26.310Z,77.50
2023-04-12T16:03:57.226Z,76.80
2023-04-12T16:06:25.194Z,76.30
2023-04-12T16:08:53.596Z,76.10
2023-04-12T16:11:22.762Z,75.90
2023-04-12T16:13:52.478Z,75.50
2023-04-12T16:16:20.143Z,75.10
2023-04-12T16:18:49.330Z,75.00
2023-04-12T16:21:17.316Z,74.80
2023-04-12T16:23:45.202Z,74.90
2023-04-12T16:26:14.113Z,74.80
2023-04-12T16:28:41.755Z,74.90
2023-04-12T16:31:09.462Z,75.40
2023-04-12T16:33:37.486Z,75.70
2023-04-12T16:36:05.137Z,75.40
2023-04-12T16:38:35.082Z,75.60
2023-04-12T16:41:03.535Z,75.60
2023-04-12T16:43:31.157Z,76.70
2023-04-12T16:45:58.863Z,76.80
2023-04-12T16:48:26.716Z,76.90
2023-04-12T16:50:54.278Z,77.00
2023-04-12T16:53:22.052Z,77.10
2023-04-12T16:55:50.656Z,76.90
2023-04-12T16:58:18.259Z,77.50
2023-04-12T17:00:45.909Z,77.50
2023-04-12T17:03:13.986Z,77.30
2023-04-12T17:05:41.663Z,77.70
2023-04-12T17:08:09.262Z,77.60
2023-04-12T17:10:38.947Z,77.40
2023-04-12T17:13:06.604Z,77.60
2023-04-12T17:15:34.354Z,77.10
2023-04-12T17:18:02.861Z,77.40
2023-04-12T17:20:30.561Z,77.20
2023-04-12T17:22:58.474Z,77.30
2023-04-12T17:25:27.712Z,77.20
2023-04-12T17:27:55.370Z,77.20
2023-04-12T17:30:23.249Z,77.30
2023-04-12T17:32:51.038Z,76.20
2023-04-12T17:35:18.679Z,76.50
2023-04-12T17:37:46.269Z,76.10
2023-04-12T17:40:13.878Z,75.00
2023-04-12T17:42:41.419Z,74.30
2023-04-12T17:45:09.234Z,72.90
2023-04-12T17:47:41.934Z,73.30
2023-04-12T17:50:10.552Z,72.90
2023-04-12T17:52:38.173Z,73.00
2023-04-12T17:55:08.044Z,73.10
2023-04-12T17:57:35.833Z,73.10
2023-04-12T18:00:03.463Z,72.70
2023-04-12T18:02:32.147Z,72.50
2023-04-12T18:05:01.710Z,72.70
2023-04-12T18:07:30.973Z,72.70
2023-04-12T18:09:59.573Z,72.50
2023-04-12T18:12:33.577Z,72.40
2023-04-12T18:15:01.610Z,72.30
2023-04-12T18:17:29.826Z,71.90
2023-04-12T18:20:08.361Z,71.80
2023-04-12T18:22:36.135Z,71.80
2023-04-12T18:25:04.254Z,71.70
2023-04-12T18:27:36.959Z,71.80
2023-04-12T18:30:06.054Z,71.80
2023-04-12T18:32:34.255Z,71.90
2023-04-12T18:35:02.136Z,72.10
2023-04-12T18:37:31.612Z,72.80
2023-04-12T18:39:59.457Z,73.80
2023-04-12T18:42:29.660Z,73.10
2023-04-12T18:44:58.182Z,73.00
2023-04-12T18:47:27.992Z,73.10
2023-04-12T18:49:56.196Z,73.30
2023-04-12T18:52:23.777Z,73.40
2023-04-12T18:54:51.348Z,73.60
2023-04-12T18:57:19.629Z,73.60
2023-04-12T18:59:47.260Z,73.90
2023-04-12T19:02:15.554Z,74.10
2023-04-12T19:04:43.622Z,73.60
2023-04-12T19:07:11.910Z,73.70
2023-04-12T19:09:39.422Z,73.80
2023-04-12T19:12:07.164Z,73.70
2023-04-12T19:14:34.725Z,73.70
2023-04-12T19:17:02.347Z,74.10
2023-04-12T19:19:30.152Z,74.70
2023-04-12T19:21:57.732Z,75.50
2023-04-12T19:24:27.264Z,76.50
2023-04-12T19:26:55.209Z,77.90
2023-04-12T19:29:23.393Z,78.00
2023-04-12T19:31:50.992Z,78.70
2023-04-12T19:34:18.809Z,79.20
2023-04-12T19:36:46.445Z,79.60
2023-04-12T19:39:14.083Z,79.90
2023-04-12T19:41:41.740Z,80.40
2023-04-12T19:44:09.402Z,80.40
2023-04-12T19:46:37.204Z,81.20
2023-04-12T19:49:05.138Z,80.50
2023-04-12T19:51:32.756Z,80.10
2023-04-12T19:54:00.719Z,80.50
2023-04-12T19:56:28.730Z,81.30
2023-04-12T19:58:56.403Z,81.80
2023-04-12T20:01:24.171Z,81.70
2023-04-12T20:03:51.908Z,81.60
2023-04-12T20:06:19.524Z,81.60
2023-04-12T20:08:47.107Z,81.70
2023-04-12T20:11:14.911Z,82.70
2023-04-12T20:13:42.706Z,82.20
2023-04-12T20:16:10.340Z,82.70
2023-04-12T20:18:40.104Z,83.20
2023-04-12T20:21:08.157Z,83.20
2023-04-12T20:23:37.300Z,83.40
2023-04-12T20:26:04.897Z,83.30
2023-04-12T20:28:32.725Z,83.40
2023-04-12T20:31:00.343Z,83.70
2023-04-12T20:33:28.310Z,83.70
2023-04-12T20:35:57.061Z,83.90
2023-04-12T20:38:24.707Z,83.90
2023-04-12T20:40:52.384Z,83.90
2023-04-12T20:43:20.176Z,83.20
2023-04-12T20:45:47.707Z,83.30
2023-04-12T20:48:15.317Z,83.30
2023-04-12T20:50:43.004Z,83.40
2023-04-12T20:53:10.580Z,83.40
2023-04-12T20:55:38.172Z,83.50
2023-04-12T20:58:07.598Z,83.60
2023-04-12T21:00:35.735Z,83.50
2023-04-12T21:03:03.529Z,84.20
2023-04-12T21:05:31.914Z,83.20
2023-04-12T21:07:59.489Z,83.70
2023-04-12T21:10:27.097Z,83.60
2023-04-12T21:12:54.835Z,83.30
2023-04-12T21:15:22.391Z,83.20
2023-04-12T21:17:50.161Z,83.10
2023-04-12T21:20:17.745Z,83.70
2023-04-12T21:22:46.440Z,84.10
2023-04-12T21:25:15.208Z,84.20
2023-04-12T21:27:43.211Z,84.90
2023-04-12T21:30:10.768Z,84.20
2023-04-12T21:32:38.570Z,84.20
2023-04-12T21:35:06.238Z,84.60
2023-04-12T21:37:34.550Z,85.30
2023-04-12T21:40:02.386Z,85.20
2023-04-12T21:42:30.587Z,85.10
2023-04-12T21:44:58.130Z,85.00
2023-04-12T21:47:26.089Z,85.00
2023-04-12T21:49:53.699Z,85.30
2023-04-12T21:52:21.212Z,85.70
2023-04-12T21:54:48.858Z,85.50
2023-04-12T21:57:16.670Z,85.10
2023-04-12T21:59:44.272Z,85.00
2023-04-12T22:02:11.979Z,84.80
2023-04-12T22:04:39.719Z,84.60
2023-04-12T22:07:07.323Z,84.70
2023-04-12T22:09:35.206Z,85.30
2023-04-12T22:12:04.555Z,85.20
2023-04-12T22:14:32.326Z,85.60
2023-04-12T22:16:59.996Z,85.50
2023-04-12T22:19:27.700Z,86.10
2023-04-12T22:21:55.283Z,87.20
2023-04-12T22:24:22.973Z,86.60
2023-04-12T22:26:50.778Z,86.30
2023-04-12T22:29:18.306Z,86.20
2023-04-12T22:31:45.966Z,86.10
2023-04-12T22:34:13.726Z,86.50
2023-04-12T22:36:41.262Z,86.30
2023-04-12T22:39:09.159Z,86.80
2023-04-12T22:41:36.878Z,86.30
2023-04-12T22:44:04.414Z,86.40
2023-04-12T22:46:32.712Z,86.10
2023-04-12T22:49:00.290Z,86.10
2023-04-12T22:51:28.267Z,86.30
2023-04-12T22:53:56.163Z,86.30
2023-04-12T22:56:24.006Z,86.10
2023-04-12T22:58:51.524Z,87.40
2023-04-12T23:01:19.141Z,86.90
2023-04-12T23:03:46.914Z,86.20
2023-04-12T23:06:14.628Z,86.80
2023-04-12T23:08:42.403Z,87.80
2023-04-12T23:11:10.223Z,88.10
2023-04-12T23:13:37.741Z,87.50
2023-04-12T23:16:05.649Z,87.40
2023-04-12T23:18:33.353Z,88.20
2023-04-12T23:21:00.852Z,87.50
2023-04-12T23:23:28.529Z,87.80
2023-04-12T23:25:56.136Z,88.10
2023-04-12T23:28:23.629Z,88.20
2023-04-12T23:30:51.207Z,88.50
2023-04-12T23:33:18.928Z,88.40
2023-04-12T23:35:46.505Z,88.20
2023-04-12T23:38:14.393Z,88.00
2023-04-12T23:40:42.301Z,87.90
2023-04-12T23:43:09.916Z,89.00
2023-04-12T23:45:37.608Z,88.10
2023-04-12T23:48:05.275Z,88.00
2023-04-12T23:50:32.873Z,87.70
2023-04-12T23:53:01.576Z,88.70
2023-04-12T23:55:30.489Z,88.70
2023-04-12T23:57:58.086Z,88.50
